createdAt,value
2022-08-19T00:02:05.789Z,13.00
2022-08-19T00:04:37.683Z,12.63
2022-08-19T00:07:06.373Z,13.48
2022-08-19T00:09:34.963Z,13.32
2022-08-19T00:12:03.733Z,13.60
2022-08-19T00:14:33.231Z,14.93
2022-08-19T00:17:04.010Z,14.50
2022-08-19T00:19:32.774Z,13.68
2022-08-19T00:22:01.598Z,15.13
2022-08-19T00:24:30.065Z,14.75
2022-08-19T00:27:04.938Z,14.10
2022-08-19T00:29:52.359Z,13.30
2022-08-19T00:32:23.037Z,14.00
2022-08-19T00:34:54.345Z,14.57
2022-08-19T00:37:24.129Z,13.23
2022-08-19T00:39:53.198Z,13.63
2022-08-19T00:42:22.241Z,13.65
2022-08-19T00:44:51.539Z,14.50
2022-08-19T00:47:20.797Z,14.77
2022-08-19T00:49:52.609Z,13.52
2022-08-19T00:52:23.179Z,13.60
2022-08-19T00:54:52.898Z,12.15
2022-08-19T00:57:24.172Z,14.00
2022-08-19T01:00:02.484Z,13.43
2022-08-19T01:02:32.769Z,13.27
2022-08-19T01:05:03.117Z,13.27
2022-08-19T01:07:35.895Z,13.07
2022-08-19T01:10:07.720Z,12.70
2022-08-19T01:12:36.579Z,13.32
2022-08-19T01:15:05.244Z,12.63
2022-08-19T01:17:34.045Z,13.65
2022-08-19T01:20:04.981Z,12.60
2022-08-19T01:22:37.806Z,13.18
2022-08-19T01:25:09.501Z,13.25
2022-08-19T01:27:44.286Z,12.55
2022-08-19T01:30:15.235Z,12.43
2022-08-19T01:32:44.339Z,12.73
2022-08-19T01:35:13.239Z,13.75
2022-08-19T01:37:47.085Z,13.65
2022-08-19T01:40:15.673Z,13.95
2022-08-19T01:42:44.172Z,12.25
2022-08-19T01:45:13.140Z,13.98
2022-08-19T01:47:42.201Z,13.82
2022-08-19T01:50:12.476Z,14.05
2022-08-19T01:52:42.153Z,13.52
2022-08-19T01:55:13.257Z,13.90
2022-08-19T01:57:42.298Z,14.32
2022-08-19T02:00:13.077Z,13.13
2022-08-19T02:02:44.201Z,14.52
2022-08-19T02:05:13.091Z,14.35
2022-08-19T02:07:41.860Z,14.38
2022-08-19T02:10:13.939Z,14.45
2022-08-19T02:12:45.296Z,14.73
2022-08-19T02:15:14.634Z,15.10
2022-08-19T02:17:43.270Z,15.00
2022-08-19T02:20:14.064Z,15.32
2022-08-19T02:22:43.459Z,15.38
2022-08-19T02:25:13.817Z,14.85
2022-08-19T02:27:42.624Z,16.42
2022-08-19T02:30:14.123Z,16.13
2022-08-19T02:32:44.745Z,16.67
2022-08-19T02:35:13.981Z,15.27
2022-08-19T02:37:59.931Z,16.52
2022-08-19T02:40:30.003Z,16.02
2022-08-19T02:42:59.042Z,15.57
2022-08-19T02:45:27.519Z,17.35
2022-08-19T02:47:57.928Z,16.98
2022-08-19T02:50:26.684Z,16.30
2022-08-19T02:52:55.148Z,16.25
2022-08-19T02:55:23.597Z,15.15
2022-08-19T02:57:53.448Z,16.50
2022-08-19T03:00:22.024Z,16.05
2022-08-19T03:02:50.498Z,15.43
2022-08-19T03:05:19.296Z,14.73
2022-08-19T03:08:08.901Z,15.65
2022-08-19T03:10:43.235Z,16.75
2022-08-19T03:13:13.093Z,15.73
2022-08-19T03:15:42.639Z,15.88
2022-08-19T03:18:11.168Z,16.58
2022-08-19T03:20:45.081Z,16.33
2022-08-19T03:23:14.878Z,15.90
2022-08-19T03:25:44.148Z,14.90
2022-08-19T03:28:14.865Z,15.70
2022-08-19T03:30:44.684Z,15.95
2022-08-19T03:33:18.182Z,15.85
2022-08-19T03:36:02.636Z,17.15
2022-08-19T03:38:31.256Z,16.40
2022-08-19T03:40:59.781Z,15.88
2022-08-19T03:43:29.690Z,16.70
2022-08-19T03:46:03.520Z,16.35
2022-08-19T03:48:32.136Z,16.83
2022-08-19T03:51:01.114Z,18.05
2022-08-19T03:53:29.746Z,17.13
2022-08-19T03:56:00.571Z,16.60
2022-08-19T03:58:31.106Z,17.35
2022-08-19T04:00:59.925Z,17.55
2022-08-19T04:03:28.826Z,18.25
2022-08-19T04:05:57.309Z,16.95
2022-08-19T04:08:26.152Z,16.73
2022-08-19T04:10:55.115Z,16.85
2022-08-19T04:13:23.582Z,16.23
2022-08-19T04:15:53.622Z,17.27
2022-08-19T04:18:22.064Z,17.40
2022-08-19T04:20:50.785Z,17.00
2022-08-19T04:23:19.656Z,17.70
2022-08-19T04:25:48.178Z,16.85
2022-08-19T04:28:16.836Z,17.48
2022-08-19T04:30:46.294Z,17.70
2022-08-19T04:33:16.612Z,17.73
2022-08-19T04:35:47.822Z,19.05
2022-08-19T04:38:16.908Z,17.60
2022-08-19T04:41:02.572Z,18.33
2022-08-19T04:43:31.670Z,18.13
2022-08-19T04:46:01.121Z,19.27
2022-08-19T04:48:31.201Z,17.55
2022-08-19T04:51:06.949Z,16.48
2022-08-19T04:53:38.027Z,17.08
2022-08-19T04:56:09.031Z,17.88
2022-08-19T04:58:37.815Z,17.38
2022-08-19T05:01:06.524Z,18.15
2022-08-19T05:03:36.435Z,17.77
2022-08-19T05:06:08.450Z,17.48
2022-08-19T05:08:37.731Z,18.77
2022-08-19T05:11:12.137Z,18.45
2022-08-19T05:13:43.359Z,16.67
2022-08-19T05:16:12.317Z,15.50
2022-08-19T05:19:00.029Z,15.70
2022-08-19T05:21:46.798Z,16.25
2022-08-19T05:24:16.059Z,15.45
2022-08-19T05:26:47.338Z,14.70
2022-08-19T05:29:16.845Z,14.70
2022-08-19T05:31:45.393Z,13.93
2022-08-19T05:34:20.474Z,14.07
2022-08-19T05:36:49.088Z,13.75
2022-08-19T05:39:18.445Z,13.82
2022-08-19T05:41:47.435Z,13.30
2022-08-19T05:44:16.653Z,13.57
2022-08-19T05:46:47.942Z,13.05
2022-08-19T05:49:18.713Z,14.85
2022-08-19T05:51:47.256Z,12.52
2022-08-19T05:54:15.961Z,12.55
2022-08-19T05:56:44.716Z,11.63
2022-08-19T05:59:13.454Z,12.32
2022-08-19T06:01:42.970Z,11.90
2022-08-19T06:04:11.661Z,12.15
2022-08-19T06:06:41.505Z,11.98
2022-08-19T06:09:10.880Z,12.52
2022-08-19T06:11:40.673Z,11.57
2022-08-19T06:14:10.118Z,11.10
2022-08-19T06:16:46.208Z,11.10
2022-08-19T06:19:16.977Z,11.07
2022-08-19T06:21:48.320Z,10.55
2022-08-19T06:24:18.044Z,11.23
2022-08-19T06:29:23.409Z,10.45
2022-08-19T06:31:54.562Z,10.70
2022-08-19T06:34:23.402Z,9.27
2022-08-19T06:36:54.652Z,9.35
2022-08-19T06:39:25.140Z,9.43
2022-08-19T06:41:56.781Z,8.75
2022-08-19T06:44:27.989Z,8.90
2022-08-19T06:46:57.571Z,8.48
2022-08-19T06:49:32.614Z,8.52
2022-08-19T06:52:03.181Z,8.07
2022-08-19T06:54:31.828Z,8.38
2022-08-19T06:57:07.667Z,8.07
2022-08-19T06:59:36.172Z,7.93
2022-08-19T07:02:07.612Z,8.05
2022-08-19T07:04:37.130Z,8.32
2022-08-19T07:07:21.053Z,7.50
2022-08-19T07:09:55.326Z,7.32
2022-08-19T07:12:29.638Z,7.32
2022-08-19T07:14:59.824Z,8.10
2022-08-19T07:17:28.668Z,8.00
2022-08-19T07:19:57.300Z,7.97
2022-08-19T07:22:27.152Z,7.57
2022-08-19T07:24:55.644Z,7.90
2022-08-19T07:27:25.377Z,8.35
2022-08-19T07:29:57.449Z,7.72
2022-08-19T07:32:27.370Z,8.13
2022-08-19T07:34:56.938Z,8.00
2022-08-19T07:37:32.396Z,8.02
2022-08-19T07:40:02.012Z,8.07
2022-08-19T07:42:31.203Z,7.97
2022-08-19T07:44:59.867Z,7.82
2022-08-19T07:47:49.365Z,7.35
2022-08-19T07:50:19.559Z,7.25
2022-08-19T07:52:50.741Z,8.15
2022-08-19T07:55:42.086Z,7.65
2022-08-19T07:58:09.688Z,7.32
2022-08-19T08:00:38.465Z,6.72
2022-08-19T08:03:07.045Z,6.70
2022-08-19T08:05:53.298Z,7.38
2022-08-19T08:08:44.229Z,6.65
2022-08-19T08:11:17.593Z,6.30
2022-08-19T08:14:01.287Z,6.78
2022-08-19T08:16:33.439Z,6.70
2022-08-19T08:19:03.270Z,6.63
2022-08-19T08:21:36.409Z,7.57
2022-08-19T08:24:06.444Z,6.20
2022-08-19T08:26:35.053Z,6.07
2022-08-19T08:29:12.393Z,5.70
2022-08-19T08:31:42.533Z,5.88
2022-08-19T08:34:11.265Z,7.05
2022-08-19T08:36:42.592Z,6.25
2022-08-19T08:39:12.825Z,6.00
2022-08-19T08:41:44.984Z,6.03
2022-08-19T08:44:17.312Z,5.97
2022-08-19T08:46:50.115Z,5.63
2022-08-19T08:49:26.617Z,5.07
2022-08-19T08:52:00.150Z,5.90
2022-08-19T08:54:34.749Z,5.60
2022-08-19T08:57:05.745Z,5.75
2022-08-19T08:59:36.607Z,5.15
2022-08-19T09:02:05.553Z,4.85
2022-08-19T09:04:34.039Z,6.57
2022-08-19T09:07:18.506Z,5.95
2022-08-19T09:10:05.497Z,5.45
2022-08-19T09:12:39.328Z,5.30
2022-08-19T09:15:14.419Z,5.72
2022-08-19T09:17:43.278Z,4.93
2022-08-19T09:20:17.275Z,5.50
2022-08-19T09:22:46.488Z,5.20
2022-08-19T09:25:26.751Z,5.38
2022-08-19T09:28:02.613Z,5.28
2022-08-19T09:30:32.657Z,5.32
2022-08-19T09:33:01.922Z,6.05
2022-08-19T09:35:31.692Z,5.53
2022-08-19T09:38:01.369Z,5.47
2022-08-19T09:40:38.258Z,5.32
2022-08-19T09:43:12.963Z,5.03
2022-08-19T09:45:42.023Z,4.80
2022-08-19T09:48:11.744Z,5.20
2022-08-19T09:50:51.577Z,5.28
2022-08-19T09:53:25.633Z,5.45
2022-08-19T09:55:57.528Z,5.03
2022-08-19T09:58:28.654Z,5.35
2022-08-19T10:00:57.403Z,5.00
2022-08-19T10:03:29.845Z,5.20
2022-08-19T10:05:59.820Z,5.20
2022-08-19T10:08:29.272Z,4.95
2022-08-19T10:10:59.816Z,5.53
2022-08-19T10:13:49.371Z,5.10
2022-08-19T10:16:18.976Z,6.50
2022-08-19T10:18:49.650Z,4.72
2022-08-19T10:21:20.313Z,5.05
2022-08-19T10:23:50.178Z,4.80
2022-08-19T10:26:21.332Z,5.30
2022-08-19T10:28:50.028Z,4.88
2022-08-19T10:31:21.539Z,4.50
2022-08-19T10:34:14.551Z,4.72
2022-08-19T10:36:56.677Z,5.03
2022-08-19T10:39:31.336Z,4.45
2022-08-19T10:42:01.409Z,4.68
2022-08-19T10:44:32.627Z,4.85
2022-08-19T10:47:01.688Z,4.75
2022-08-19T10:49:30.326Z,4.60
2022-08-19T10:52:19.029Z,4.43
2022-08-19T10:55:08.501Z,5.18
2022-08-19T10:58:01.323Z,4.43
2022-08-19T11:00:27.380Z,4.22
2022-08-19T11:02:56.809Z,4.80
2022-08-19T11:05:25.313Z,4.38
2022-08-19T11:07:54.044Z,4.47
2022-08-19T11:10:24.838Z,4.85
2022-08-19T11:12:55.700Z,5.03
2022-08-19T11:15:24.385Z,4.50
2022-08-19T11:17:55.401Z,4.90
2022-08-19T11:20:25.420Z,4.25
2022-08-19T11:22:54.590Z,4.15
2022-08-19T11:25:23.322Z,4.78
2022-08-19T11:27:53.267Z,4.43
2022-08-19T11:30:23.414Z,4.50
2022-08-19T11:32:51.895Z,4.53
2022-08-19T11:35:20.673Z,4.65
2022-08-19T11:37:49.141Z,4.00
2022-08-19T11:40:17.740Z,4.13
2022-08-19T11:42:58.610Z,4.40
2022-08-19T11:45:29.664Z,4.57
2022-08-19T11:47:58.501Z,4.30
2022-08-19T11:50:27.317Z,5.15
2022-08-19T11:52:56.693Z,4.68
2022-08-19T11:55:25.508Z,4.35
2022-08-19T11:57:54.111Z,4.40
2022-08-19T12:00:22.788Z,4.80
2022-08-19T12:02:52.637Z,5.10
2022-08-19T12:05:21.249Z,4.47
2022-08-19T12:07:50.933Z,4.22
2022-08-19T12:10:22.384Z,4.55
2022-08-19T12:12:58.924Z,4.30
2022-08-19T12:15:28.910Z,4.55
2022-08-19T12:18:07.735Z,4.50
2022-08-19T12:20:37.624Z,4.50
2022-08-19T12:23:06.138Z,4.88
2022-08-19T12:25:35.488Z,4.85
2022-08-19T12:28:04.451Z,4.57
2022-08-19T12:30:33.410Z,4.72
2022-08-19T12:33:01.877Z,4.75
2022-08-19T12:35:31.883Z,4.50
2022-08-19T12:38:01.025Z,4.53
2022-08-19T12:40:29.626Z,4.72
2022-08-19T12:42:58.421Z,4.18
2022-08-19T12:45:28.285Z,4.75
2022-08-19T12:47:56.952Z,4.53
2022-08-19T12:50:25.633Z,4.65
2022-08-19T12:52:55.476Z,4.28
2022-08-19T12:55:23.972Z,4.75
2022-08-19T12:57:52.474Z,4.70
2022-08-19T13:00:23.073Z,4.18
2022-08-19T13:02:53.776Z,4.55
2022-08-19T13:05:24.347Z,4.97
2022-08-19T13:07:56.822Z,4.38
2022-08-19T13:10:28.771Z,4.53
2022-08-19T13:12:58.048Z,4.75
2022-08-19T13:15:26.768Z,4.28
2022-08-19T13:17:57.776Z,4.90
2022-08-19T13:20:26.501Z,4.75
2022-08-19T13:22:55.041Z,5.00
2022-08-19T13:25:23.789Z,4.80
2022-08-19T13:27:53.821Z,4.90
2022-08-19T13:30:40.935Z,4.60
2022-08-19T13:33:12.784Z,4.63
2022-08-19T13:35:46.804Z,4.68
2022-08-19T13:38:15.534Z,4.85
2022-08-19T13:40:44.240Z,5.00
2022-08-19T13:43:23.044Z,4.70
2022-08-19T13:45:53.744Z,5.10
2022-08-19T13:48:22.553Z,4.80
2022-08-19T13:50:51.053Z,4.90
2022-08-19T13:53:19.871Z,4.97
2022-08-19T13:55:48.408Z,4.72
2022-08-19T13:58:18.641Z,5.25
2022-08-19T14:00:49.334Z,5.05
2022-08-19T14:03:18.009Z,4.82
2022-08-19T14:05:47.669Z,5.00
2022-08-19T14:08:16.172Z,4.75
2022-08-19T14:10:45.528Z,4.85
2022-08-19T14:13:16.762Z,5.07
2022-08-19T14:15:47.068Z,4.75
2022-08-19T14:18:15.724Z,4.60
2022-08-19T14:20:44.268Z,5.15
2022-08-19T14:23:13.785Z,5.05
2022-08-19T14:25:42.463Z,4.68
2022-08-19T14:28:10.924Z,5.00
2022-08-19T14:30:40.067Z,5.43
2022-08-19T14:33:10.428Z,5.13
2022-08-19T14:35:39.293Z,5.63
2022-08-19T14:38:09.181Z,5.68
2022-08-19T14:40:37.728Z,5.00
2022-08-19T14:43:07.049Z,4.75
2022-08-19T14:45:36.918Z,5.07
2022-08-19T14:48:06.423Z,5.30
2022-08-19T14:50:37.064Z,4.75
2022-08-19T14:53:09.052Z,5.38
2022-08-19T14:55:43.470Z,4.90
2022-08-19T14:58:29.405Z,5.38
2022-08-19T15:00:59.223Z,5.07
2022-08-19T15:03:28.071Z,4.65
2022-08-19T15:05:58.741Z,4.80
2022-08-19T15:08:27.841Z,5.07
2022-08-19T15:10:56.347Z,4.88
2022-08-19T15:13:25.638Z,4.95
2022-08-19T15:15:54.159Z,5.40
2022-08-19T15:18:22.850Z,6.00
2022-08-19T15:20:51.947Z,6.57
2022-08-19T15:23:22.758Z,6.57
2022-08-19T15:25:55.875Z,6.93
2022-08-19T15:28:25.254Z,6.40
2022-08-19T15:30:54.201Z,6.72
2022-08-19T15:33:22.693Z,6.03
2022-08-19T15:35:52.165Z,5.47
2022-08-19T15:38:24.469Z,5.63
2022-08-19T15:40:53.065Z,5.72
2022-08-19T15:43:23.340Z,5.55
2022-08-19T15:45:51.885Z,5.68
2022-08-19T15:48:20.349Z,5.97
2022-08-19T15:50:48.812Z,6.35
2022-08-19T15:53:18.023Z,6.10
2022-08-19T15:55:49.141Z,6.13
2022-08-19T15:58:35.667Z,5.78
2022-08-19T16:01:23.897Z,5.55
2022-08-19T16:04:11.388Z,6.43
2022-08-19T16:06:45.827Z,5.97
2022-08-19T16:09:14.296Z,5.60
2022-08-19T16:11:46.544Z,5.35
2022-08-19T16:14:16.149Z,6.07
2022-08-19T16:16:46.807Z,6.10
2022-08-19T16:19:16.717Z,5.47
2022-08-19T16:21:45.700Z,5.90
2022-08-19T16:24:15.077Z,5.47
2022-08-19T16:26:45.428Z,6.00
2022-08-19T16:29:14.016Z,5.97
2022-08-19T16:31:43.461Z,5.85
2022-08-19T16:34:12.520Z,5.82
2022-08-19T16:36:42.233Z,5.88
2022-08-19T16:39:11.063Z,6.30
2022-08-19T16:41:39.738Z,6.15
2022-08-19T16:44:10.410Z,6.03
2022-08-19T16:46:41.644Z,6.28
2022-08-19T16:49:11.676Z,6.75
2022-08-19T16:51:40.622Z,7.20
2022-08-19T16:54:09.188Z,6.20
2022-08-19T16:56:38.001Z,6.22
2022-08-19T16:59:06.644Z,6.65
2022-08-19T17:01:36.544Z,6.88
2022-08-19T17:04:05.764Z,6.95
2022-08-19T17:06:36.544Z,6.90
2022-08-19T17:09:06.054Z,7.57
2022-08-19T17:11:35.810Z,7.68
2022-08-19T17:14:05.297Z,7.78
2022-08-19T17:16:34.891Z,7.78
2022-08-19T17:19:08.228Z,8.38
2022-08-19T17:21:37.832Z,8.25
2022-08-19T17:24:08.720Z,8.40
2022-08-19T17:26:38.084Z,7.78
2022-08-19T17:29:07.201Z,7.53
2022-08-19T17:31:35.976Z,7.60
2022-08-19T17:34:06.372Z,7.93
2022-08-19T17:36:36.239Z,8.15
2022-08-19T17:39:05.455Z,7.40
2022-08-19T17:41:35.159Z,8.23
2022-08-19T17:44:03.638Z,8.45
2022-08-19T17:46:32.156Z,7.95
2022-08-19T17:49:00.839Z,7.47
2022-08-19T17:51:42.535Z,8.02
2022-08-19T17:54:12.093Z,7.90
2022-08-19T17:56:41.764Z,8.13
2022-08-19T17:59:13.783Z,8.00
2022-08-19T18:01:52.107Z,8.32
2022-08-19T18:04:24.049Z,7.22
2022-08-19T18:06:54.988Z,8.35
2022-08-19T18:09:25.217Z,7.80
2022-08-19T18:11:54.490Z,8.13
2022-08-19T18:14:32.206Z,8.27
2022-08-19T18:17:05.578Z,8.77
2022-08-19T18:19:40.823Z,8.00
2022-08-19T18:22:12.082Z,8.13
2022-08-19T18:24:41.547Z,7.78
2022-08-19T18:27:10.273Z,9.00
2022-08-19T18:29:40.222Z,8.45
2022-08-19T18:32:13.332Z,8.00
2022-08-19T18:34:42.312Z,9.30
2022-08-19T18:37:12.192Z,8.07
2022-08-19T18:39:58.047Z,8.55
2022-08-19T18:42:44.260Z,7.82
2022-08-19T18:45:31.091Z,9.32
2022-08-19T18:48:27.132Z,8.32
2022-08-19T18:50:56.448Z,9.20
2022-08-19T18:53:26.327Z,8.75
2022-08-19T18:55:55.284Z,8.63
2022-08-19T18:58:26.442Z,9.38
2022-08-19T19:00:57.089Z,8.88
2022-08-19T19:03:25.813Z,9.10
2022-08-19T19:05:54.308Z,9.25
2022-08-19T19:08:27.276Z,9.25
2022-08-19T19:10:59.018Z,8.85
2022-08-19T19:13:29.574Z,8.70
2022-08-19T19:15:58.111Z,9.63
2022-08-19T19:18:26.680Z,9.20
2022-08-19T19:20:55.158Z,8.68
2022-08-19T19:23:23.694Z,9.13
2022-08-19T19:25:52.893Z,9.05
2022-08-19T19:28:25.718Z,8.60
2022-08-19T19:30:55.189Z,9.13
2022-08-19T19:33:23.713Z,9.55
2022-08-19T19:35:52.191Z,9.60
2022-08-19T19:38:20.662Z,8.65
2022-08-19T19:40:49.211Z,9.13
2022-08-19T19:43:18.447Z,9.50
2022-08-19T19:45:49.975Z,9.40
2022-08-19T19:48:18.681Z,9.10
2022-08-19T19:50:54.067Z,8.98
2022-08-19T19:53:26.086Z,9.57
2022-08-19T19:55:58.984Z,9.52
2022-08-19T19:58:28.757Z,9.23
2022-08-19T20:00:59.689Z,9.52
2022-08-19T20:03:30.055Z,9.07
2022-08-19T20:05:59.396Z,9.52
2022-08-19T20:08:46.166Z,9.63
2022-08-19T20:11:16.668Z,9.70
2022-08-19T20:13:45.420Z,8.68
2022-08-19T20:16:15.281Z,8.95
2022-08-19T20:18:43.789Z,9.23
2022-08-19T20:21:12.381Z,9.13
2022-08-19T20:23:40.820Z,10.82
2022-08-19T20:26:14.814Z,9.80
2022-08-19T20:29:19.283Z,9.82
2022-08-19T20:31:57.370Z,10.70
2022-08-19T20:34:27.872Z,9.05
2022-08-19T20:36:56.387Z,9.52
2022-08-19T20:39:24.821Z,10.00
2022-08-19T20:41:53.307Z,9.60
2022-08-19T20:44:21.795Z,9.70
2022-08-19T20:46:55.568Z,9.88
2022-08-19T20:49:27.103Z,10.13
2022-08-19T20:51:56.473Z,9.93
2022-08-19T20:54:25.062Z,9.90
2022-08-19T20:56:53.571Z,9.73
2022-08-19T20:59:22.125Z,9.55
2022-08-19T21:01:52.318Z,10.52
2022-08-19T21:04:21.389Z,9.93
2022-08-19T21:06:49.873Z,9.73
2022-08-19T21:09:18.632Z,10.50
2022-08-19T21:11:47.109Z,10.50
2022-08-19T21:14:15.627Z,9.93
2022-08-19T21:16:44.465Z,9.95
2022-08-19T21:19:14.312Z,10.95
2022-08-19T21:21:42.792Z,9.82
2022-08-19T21:24:11.312Z,10.55
2022-08-19T21:26:40.041Z,9.85
2022-08-19T21:29:08.765Z,10.35
2022-08-19T21:31:37.224Z,10.10
2022-08-19T21:34:06.050Z,10.73
2022-08-19T21:36:35.914Z,10.23
2022-08-19T21:39:04.731Z,10.48
2022-08-19T21:41:33.229Z,9.90
2022-08-19T21:44:01.745Z,10.63
2022-08-19T21:46:30.212Z,10.30
2022-08-19T21:48:58.653Z,10.70
2022-08-19T21:51:27.130Z,10.50
2022-08-19T21:53:57.516Z,10.60
2022-08-19T21:56:26.005Z,10.00
2022-08-19T21:58:55.578Z,10.95
2022-08-19T22:01:24.246Z,10.40
2022-08-19T22:03:52.797Z,10.10
2022-08-19T22:06:23.108Z,9.95
2022-08-19T22:08:51.567Z,11.00
2022-08-19T22:11:21.425Z,10.43
2022-08-19T22:13:53.757Z,10.00
2022-08-19T22:16:22.805Z,9.80
2022-08-19T22:18:51.790Z,10.65
2022-08-19T22:21:39.662Z,10.02
2022-08-19T22:24:09.257Z,9.88
2022-08-19T22:26:39.160Z,9.90
2022-08-19T22:29:07.599Z,10.23
2022-08-19T22:31:37.591Z,9.90
2022-08-19T22:34:06.748Z,10.32
2022-08-19T22:36:35.657Z,11.32
2022-08-19T22:39:04.834Z,10.57
2022-08-19T22:41:34.549Z,9.48
2022-08-19T22:44:04.433Z,10.32
2022-08-19T22:46:34.267Z,10.77
2022-08-19T22:49:02.767Z,10.30
2022-08-19T22:51:48.766Z,10.20
2022-08-19T22:54:17.459Z,9.90
2022-08-19T22:56:45.953Z,9.73
2022-08-19T22:59:16.173Z,10.38
2022-08-19T23:01:44.632Z,10.80
2022-08-19T23:04:13.113Z,10.23
2022-08-19T23:06:42.495Z,10.40
2022-08-19T23:09:17.000Z,10.25
2022-08-19T23:11:45.940Z,10.85
2022-08-19T23:14:17.646Z,10.07
2022-08-19T23:16:50.655Z,10.40
2022-08-19T23:19:20.284Z,10.13
2022-08-19T23:21:48.921Z,10.20
2022-08-19T23:24:17.506Z,10.05
2022-08-19T23:26:59.857Z,10.18
2022-08-19T23:29:48.630Z,10.13
2022-08-19T23:32:17.256Z,10.55
2022-08-19T23:34:45.808Z,9.55
2022-08-19T23:37:14.253Z,10.10
2022-08-19T23:39:43.645Z,10.80
2022-08-19T23:42:13.829Z,10.27
2022-08-19T23:44:51.814Z,11.27
2022-08-19T23:47:21.474Z,10.15
2022-08-19T23:49:50.678Z,10.52
2022-08-19T23:52:19.227Z,10.35
2022-08-19T23:54:47.757Z,10.55
2022-08-19T23:57:16.192Z,10.27
2022-08-19T23:59:46.400Z,10.70
